createdAt,value
2022-10-06T00:00:38.780Z,22.08
2022-10-06T00:03:05.890Z,24.63
2022-10-06T00:05:33.087Z,22.75
2022-10-06T00:08:00.502Z,22.42
2022-10-06T00:10:27.952Z,20.88
2022-10-06T00:12:55.090Z,20.63
2022-10-06T00:15:23.243Z,23.33
2022-10-06T00:17:50.563Z,26.40
2022-10-06T00:20:17.978Z,24.10
2022-10-06T00:22:45.773Z,23.75
2022-10-06T00:25:13.374Z,21.98
2022-10-06T00:27:41.214Z,18.17
2022-10-06T00:30:09.283Z,18.60
2022-10-06T00:32:36.396Z,17.20
2022-10-06T00:35:03.607Z,16.05
2022-10-06T00:37:34.307Z,16.88
2022-10-06T00:40:01.558Z,16.70
2022-10-06T00:42:29.465Z,16.92
2022-10-06T00:44:56.783Z,17.60
2022-10-06T00:47:23.902Z,14.98
2022-10-06T00:49:51.046Z,13.75
2022-10-06T00:52:19.480Z,14.35
2022-10-06T00:54:46.624Z,14.80
2022-10-06T00:57:13.866Z,12.90
2022-10-06T00:59:40.977Z,13.32
2022-10-06T01:02:14.532Z,12.48
2022-10-06T01:04:42.457Z,10.68
2022-10-06T01:07:09.857Z,8.70
2022-10-06T01:09:36.996Z,9.30
2022-10-06T01:12:04.376Z,9.20
2022-10-06T01:14:31.487Z,8.65
2022-10-06T01:16:59.791Z,9.20
2022-10-06T01:19:31.796Z,9.43
2022-10-06T01:21:58.945Z,9.77
2022-10-06T01:24:26.073Z,9.90
2022-10-06T01:26:53.206Z,10.18
2022-10-06T01:29:20.319Z,11.48
2022-10-06T01:31:47.507Z,11.15
2022-10-06T01:34:14.668Z,13.93
2022-10-06T01:36:42.066Z,14.18
2022-10-06T01:39:09.339Z,13.35
2022-10-06T01:41:36.442Z,16.70
2022-10-06T01:44:03.687Z,25.13
2022-10-06T01:46:31.088Z,24.17
2022-10-06T01:48:58.271Z,22.90
2022-10-06T01:51:25.371Z,27.42
2022-10-06T01:53:52.522Z,27.70
2022-10-06T01:56:21.078Z,36.22
2022-10-06T01:58:48.509Z,47.63
2022-10-06T02:01:15.739Z,56.13
2022-10-06T02:03:42.896Z,64.78
2022-10-06T02:06:10.116Z,57.30
2022-10-06T02:08:37.360Z,44.88
2022-10-06T02:11:11.050Z,45.35
2022-10-06T02:13:38.363Z,34.72
2022-10-06T02:16:06.820Z,34.35
2022-10-06T02:18:34.230Z,27.83
2022-10-06T02:21:01.554Z,31.38
2022-10-06T02:23:28.667Z,28.60
2022-10-06T02:25:59.884Z,22.30
2022-10-06T02:28:27.590Z,23.73
2022-10-06T02:30:56.863Z,20.52
2022-10-06T02:33:24.055Z,21.58
2022-10-06T02:35:55.152Z,22.23
2022-10-06T02:38:22.343Z,19.50
2022-10-06T02:40:49.462Z,16.83
2022-10-06T02:43:16.602Z,18.02
2022-10-06T02:45:43.699Z,16.88
2022-10-06T02:48:11.542Z,13.48
2022-10-06T02:50:41.752Z,12.80
2022-10-06T02:53:08.957Z,11.98
2022-10-06T02:55:36.311Z,11.73
2022-10-06T02:58:03.619Z,11.50
2022-10-06T03:00:30.789Z,9.70
2022-10-06T03:02:57.942Z,9.18
2022-10-06T03:05:25.265Z,12.00
2022-10-06T03:07:52.367Z,9.07
2022-10-06T03:10:19.513Z,8.95
2022-10-06T03:12:46.670Z,8.35
2022-10-06T03:15:13.777Z,7.43
2022-10-06T03:17:41.067Z,8.57
2022-10-06T03:20:08.709Z,9.40
2022-10-06T03:22:35.845Z,8.35
2022-10-06T03:25:03.990Z,8.00
2022-10-06T03:27:31.202Z,6.78
2022-10-06T03:29:58.360Z,6.88
2022-10-06T03:32:25.513Z,7.10
2022-10-06T03:34:55.807Z,8.25
2022-10-06T03:37:22.995Z,7.88
2022-10-06T03:39:50.125Z,6.90
2022-10-06T03:42:17.270Z,6.53
2022-10-06T03:44:44.398Z,6.70
2022-10-06T03:47:16.792Z,6.50
2022-10-06T03:49:44.468Z,6.35
2022-10-06T03:52:11.637Z,8.68
2022-10-06T03:54:38.748Z,8.30
2022-10-06T03:57:05.901Z,5.70
2022-10-06T03:59:34.338Z,6.63
2022-10-06T04:02:01.567Z,8.25
2022-10-06T04:04:28.908Z,7.40
2022-10-06T04:06:56.086Z,7.40
2022-10-06T04:09:23.212Z,6.50
2022-10-06T04:11:51.759Z,6.03
2022-10-06T04:14:18.924Z,5.30
2022-10-06T04:16:46.780Z,5.05
2022-10-06T04:19:14.273Z,4.68
2022-10-06T04:21:41.798Z,10.55
2022-10-06T04:24:09.380Z,10.02
2022-10-06T04:26:37.357Z,8.93
2022-10-06T04:29:04.617Z,20.70
2022-10-06T04:31:32.915Z,39.28
2022-10-06T04:34:00.563Z,30.63
2022-10-06T04:36:29.101Z,30.55
2022-10-06T04:38:58.239Z,15.63
2022-10-06T04:41:29.183Z,24.17
2022-10-06T04:43:56.373Z,43.78
2022-10-06T04:46:42.249Z,49.75
2022-10-06T04:49:14.699Z,48.22
2022-10-06T04:51:44.941Z,51.50
2022-10-06T04:54:12.122Z,48.00
2022-10-06T04:56:39.228Z,52.60
2022-10-06T04:59:06.329Z,51.28
2022-10-06T05:01:34.164Z,48.83
2022-10-06T05:04:01.992Z,53.55
2022-10-06T05:06:29.968Z,51.17
2022-10-06T05:09:06.738Z,39.42
2022-10-06T05:11:33.883Z,42.10
2022-10-06T05:14:00.986Z,37.95
2022-10-06T05:16:28.746Z,35.25
2022-10-06T05:18:56.060Z,34.22
2022-10-06T05:21:26.812Z,33.40
2022-10-06T05:23:54.069Z,37.40
2022-10-06T05:26:22.038Z,35.55
2022-10-06T05:28:49.303Z,33.55
2022-10-06T05:31:17.704Z,39.90
2022-10-06T05:33:44.951Z,33.85
2022-10-06T05:36:13.037Z,39.10
2022-10-06T05:38:40.215Z,35.63
2022-10-06T05:41:08.401Z,31.23
2022-10-06T05:43:35.650Z,32.00
2022-10-06T05:46:03.304Z,31.45
2022-10-06T05:48:30.981Z,31.63
2022-10-06T05:50:59.627Z,30.65
2022-10-06T05:53:27.495Z,43.42
2022-10-06T05:56:02.790Z,40.25
2022-10-06T05:58:30.256Z,38.63
2022-10-06T06:01:05.985Z,35.72
2022-10-06T06:03:33.150Z,33.22
2022-10-06T06:06:00.401Z,33.65
2022-10-06T06:08:27.968Z,30.17
2022-10-06T06:10:55.396Z,25.65
2022-10-06T06:13:23.051Z,22.02
2022-10-06T06:16:02.181Z,20.00
2022-10-06T06:18:29.610Z,18.55
2022-10-06T06:20:57.677Z,15.65
2022-10-06T06:23:24.888Z,12.90
2022-10-06T06:26:02.691Z,9.75
2022-10-06T06:28:30.748Z,9.65
2022-10-06T06:31:04.668Z,10.55
2022-10-06T06:33:31.892Z,25.17
2022-10-06T06:36:01.143Z,28.67
2022-10-06T06:38:28.827Z,27.90
2022-10-06T06:40:56.290Z,35.30
2022-10-06T06:43:23.427Z,51.33
2022-10-06T06:45:50.597Z,46.60
2022-10-06T06:48:17.814Z,19.17
2022-10-06T06:50:45.764Z,8.50
2022-10-06T06:53:16.309Z,5.80
2022-10-06T06:55:52.803Z,4.28
2022-10-06T06:58:20.311Z,4.03
2022-10-06T07:00:48.374Z,3.28
2022-10-06T07:03:28.227Z,3.30
2022-10-06T07:06:08.844Z,3.00
2022-10-06T07:08:42.655Z,2.97
2022-10-06T07:11:13.334Z,2.97
2022-10-06T07:13:40.669Z,2.97
2022-10-06T07:16:26.679Z,2.75
2022-10-06T07:19:12.538Z,11.07
2022-10-06T07:21:58.559Z,22.58
2022-10-06T07:24:44.555Z,5.40
2022-10-06T07:27:11.711Z,7.90
2022-10-06T07:29:38.891Z,4.28
2022-10-06T07:32:06.039Z,3.38
2022-10-06T07:34:33.220Z,2.80
2022-10-06T07:37:04.092Z,3.08
2022-10-06T07:39:33.594Z,3.17
2022-10-06T07:42:00.711Z,2.92
2022-10-06T07:44:27.892Z,3.40
2022-10-06T07:46:55.047Z,15.30
2022-10-06T07:49:22.188Z,4.22
2022-10-06T07:51:49.358Z,3.60
2022-10-06T07:54:16.582Z,3.67
2022-10-06T07:56:44.071Z,2.92
2022-10-06T07:59:11.176Z,3.20
2022-10-06T08:01:39.423Z,3.17
2022-10-06T08:04:06.774Z,3.30
2022-10-06T08:06:34.412Z,2.90
2022-10-06T08:09:01.650Z,3.00
2022-10-06T08:11:28.829Z,3.83
2022-10-06T08:13:56.005Z,4.00
2022-10-06T08:16:23.783Z,3.13
2022-10-06T08:18:54.457Z,4.53
2022-10-06T08:21:22.485Z,2.88
2022-10-06T08:23:49.977Z,3.63
2022-10-06T08:26:17.518Z,5.60
2022-10-06T08:28:45.823Z,3.70
2022-10-06T08:31:13.223Z,20.50
2022-10-06T08:33:42.292Z,3.08
2022-10-06T08:36:10.571Z,2.95
2022-10-06T08:38:38.179Z,3.22
2022-10-06T08:41:17.231Z,3.40
2022-10-06T08:43:45.363Z,2.72
2022-10-06T08:46:14.384Z,2.40
2022-10-06T08:48:41.494Z,2.40
2022-10-06T08:51:21.211Z,2.63
2022-10-06T08:53:48.298Z,2.75
2022-10-06T08:56:18.444Z,2.20
2022-10-06T08:58:50.393Z,2.20
2022-10-06T09:01:18.775Z,2.53
2022-10-06T09:03:49.445Z,2.08
2022-10-06T09:06:19.311Z,2.40
2022-10-06T09:08:50.892Z,2.30
2022-10-06T09:11:37.125Z,2.20
2022-10-06T09:14:05.473Z,2.10
2022-10-06T09:16:37.208Z,2.22
2022-10-06T09:19:10.246Z,2.33
2022-10-06T09:21:39.506Z,2.67
2022-10-06T09:24:08.392Z,9.07
2022-10-06T09:26:35.814Z,2.53
2022-10-06T09:29:03.018Z,2.47
2022-10-06T09:31:50.511Z,2.20
2022-10-06T09:34:36.377Z,2.13
2022-10-06T09:37:03.502Z,2.17
2022-10-06T09:39:33.419Z,2.55
2022-10-06T09:42:04.819Z,2.00
2022-10-06T09:44:34.630Z,2.13
2022-10-06T09:47:01.723Z,2.35
2022-10-06T09:49:31.452Z,2.28
2022-10-06T09:52:02.972Z,2.25
2022-10-06T09:54:30.490Z,2.25
2022-10-06T09:57:00.041Z,2.15
2022-10-06T09:59:39.777Z,3.05
2022-10-06T10:02:15.048Z,2.47
2022-10-06T10:04:42.172Z,2.10
2022-10-06T10:07:25.779Z,2.25
2022-10-06T10:09:53.624Z,2.50
2022-10-06T10:12:29.837Z,2.05
2022-10-06T10:14:58.234Z,2.00
2022-10-06T10:17:25.379Z,2.53
2022-10-06T10:19:53.204Z,2.08
2022-10-06T10:22:28.491Z,2.42
2022-10-06T10:25:21.977Z,2.20
2022-10-06T10:27:59.731Z,2.15
2022-10-06T10:30:28.515Z,2.20
2022-10-06T10:33:13.015Z,2.08
2022-10-06T10:35:46.460Z,2.50
2022-10-06T10:38:20.259Z,2.28
2022-10-06T10:40:51.605Z,2.42
2022-10-06T10:43:24.788Z,2.40
2022-10-06T10:46:10.608Z,2.58
2022-10-06T10:48:42.489Z,2.40
2022-10-06T10:51:28.529Z,2.13
2022-10-06T10:53:57.995Z,2.38
2022-10-06T10:56:25.144Z,2.20
2022-10-06T10:58:57.439Z,2.13
2022-10-06T11:01:38.635Z,2.45
2022-10-06T11:04:10.192Z,2.28
2022-10-06T11:07:03.769Z,2.30
2022-10-06T11:09:36.541Z,1.90
2022-10-06T11:12:18.889Z,2.25
2022-10-06T11:14:59.782Z,2.33
2022-10-06T11:17:33.372Z,2.35
2022-10-06T11:20:04.440Z,2.22
2022-10-06T11:22:35.580Z,2.00
2022-10-06T11:25:31.312Z,2.10
2022-10-06T11:28:11.445Z,2.33
2022-10-06T11:30:41.698Z,2.10
2022-10-06T11:33:11.816Z,2.60
2022-10-06T11:35:39.922Z,2.33
2022-10-06T11:38:13.305Z,1.90
2022-10-06T11:40:52.535Z,2.00
2022-10-06T11:43:36.811Z,2.10
2022-10-06T11:46:09.994Z,1.92
2022-10-06T11:48:37.540Z,1.92
2022-10-06T11:51:23.155Z,2.00
2022-10-06T11:53:50.300Z,1.88
2022-10-06T11:56:17.390Z,2.03
2022-10-06T11:58:56.501Z,2.00
2022-10-06T12:01:33.460Z,2.20
2022-10-06T12:04:05.442Z,2.03
2022-10-06T12:06:52.871Z,1.80
2022-10-06T12:09:23.016Z,2.08
2022-10-06T12:11:50.945Z,2.45
2022-10-06T12:16:32.019Z,2.30
2022-10-06T12:17:19.254Z,2.15
2022-10-06T12:20:05.447Z,2.40
2022-10-06T12:22:33.854Z,2.38
2022-10-06T12:25:12.041Z,2.50
2022-10-06T12:28:05.974Z,2.58
2022-10-06T12:30:52.057Z,2.33
2022-10-06T12:33:19.383Z,2.50
2022-10-06T12:35:47.522Z,2.22
2022-10-06T12:38:33.908Z,2.17
2022-10-06T12:41:01.722Z,2.10
2022-10-06T12:43:30.049Z,2.10
2022-10-06T12:45:58.486Z,2.25
2022-10-06T12:48:34.962Z,2.30
2022-10-06T12:51:04.061Z,2.28
2022-10-06T12:53:32.813Z,2.40
2022-10-06T12:56:02.746Z,2.33
2022-10-06T12:58:33.851Z,1.88
2022-10-06T13:01:01.856Z,2.50
2022-10-06T13:03:29.072Z,2.00
2022-10-06T13:05:57.569Z,2.80
2022-10-06T13:08:25.825Z,2.67
2022-10-06T13:10:52.958Z,3.35
2022-10-06T13:13:24.446Z,4.82
2022-10-06T13:15:55.846Z,3.72
2022-10-06T13:18:23.185Z,3.40
2022-10-06T13:20:53.757Z,3.45
2022-10-06T13:23:20.854Z,6.28
2022-10-06T13:25:50.768Z,4.07
2022-10-06T13:28:24.060Z,3.08
2022-10-06T13:30:55.191Z,3.03
2022-10-06T13:33:22.654Z,2.88
2022-10-06T13:35:50.980Z,2.90
2022-10-06T13:38:18.147Z,2.85
2022-10-06T13:40:46.013Z,2.95
2022-10-06T13:43:17.324Z,2.90
2022-10-06T13:45:45.190Z,2.80
2022-10-06T13:48:16.590Z,2.85
2022-10-06T13:50:47.238Z,3.15
2022-10-06T13:53:31.086Z,2.90
2022-10-06T13:56:01.312Z,2.80
2022-10-06T13:58:29.871Z,2.60
2022-10-06T14:01:00.394Z,2.80
2022-10-06T14:03:29.438Z,2.53
2022-10-06T14:06:05.784Z,3.00
2022-10-06T14:08:32.945Z,3.00
2022-10-06T14:11:01.149Z,2.50
2022-10-06T14:13:40.345Z,2.95
2022-10-06T14:16:08.466Z,2.53
2022-10-06T14:18:45.428Z,2.65
2022-10-06T14:21:31.445Z,2.40
2022-10-06T14:23:59.297Z,2.65
2022-10-06T14:26:31.305Z,2.80
2022-10-06T14:28:58.478Z,2.20
2022-10-06T14:31:26.374Z,2.63
2022-10-06T14:33:53.792Z,15.88
2022-10-06T14:36:27.568Z,3.15
2022-10-06T14:38:55.121Z,3.08
2022-10-06T14:41:27.474Z,2.88
2022-10-06T14:43:58.406Z,3.22
2022-10-06T14:46:25.717Z,2.20
2022-10-06T14:48:52.965Z,2.30
2022-10-06T14:51:20.413Z,3.35
2022-10-06T14:53:54.385Z,2.90
2022-10-06T14:56:23.034Z,2.75
2022-10-06T14:58:50.365Z,3.47
2022-10-06T15:01:17.665Z,3.28
2022-10-06T15:03:49.235Z,4.00
2022-10-06T15:06:35.037Z,3.90
2022-10-06T15:09:02.175Z,5.20
2022-10-06T15:11:29.317Z,4.43
2022-10-06T15:13:58.043Z,4.25
2022-10-06T15:16:25.632Z,2.53
2022-10-06T15:18:52.881Z,3.17
2022-10-06T15:21:21.112Z,3.75
2022-10-06T15:23:49.043Z,7.05
2022-10-06T15:26:35.065Z,10.48
2022-10-06T15:29:02.944Z,10.18
2022-10-06T15:31:31.205Z,10.57
2022-10-06T15:34:00.136Z,13.48
2022-10-06T15:36:27.559Z,14.43
2022-10-06T15:38:55.346Z,11.10
2022-10-06T15:41:22.588Z,9.63
2022-10-06T15:43:55.811Z,24.58
2022-10-06T15:46:26.202Z,24.45
2022-10-06T15:48:58.971Z,19.65
2022-10-06T15:51:27.316Z,15.48
2022-10-06T15:53:54.443Z,12.68
2022-10-06T15:56:21.562Z,15.32
2022-10-06T15:58:48.792Z,13.40
2022-10-06T16:01:25.928Z,12.90
2022-10-06T16:03:53.555Z,14.32
2022-10-06T16:06:40.403Z,14.45
2022-10-06T16:09:08.929Z,20.67
2022-10-06T16:11:36.049Z,21.08
2022-10-06T16:14:03.349Z,25.73
2022-10-06T16:16:30.537Z,26.30
2022-10-06T16:18:57.730Z,24.48
2022-10-06T16:21:24.894Z,26.85
2022-10-06T16:23:53.553Z,27.50
2022-10-06T16:26:21.046Z,20.70
2022-10-06T16:28:48.194Z,23.98
2022-10-06T16:31:15.450Z,39.92
2022-10-06T16:33:43.581Z,32.78
2022-10-06T16:36:10.785Z,31.88
2022-10-06T16:38:38.007Z,31.02
2022-10-06T16:41:05.239Z,27.80
2022-10-06T16:43:36.624Z,24.45
2022-10-06T16:46:13.765Z,26.52
2022-10-06T16:48:41.715Z,30.02
2022-10-06T16:51:12.733Z,28.85
2022-10-06T16:53:40.618Z,32.90
2022-10-06T16:56:08.576Z,35.67
2022-10-06T16:58:36.538Z,35.83
2022-10-06T17:01:06.683Z,29.85
2022-10-06T17:03:33.962Z,28.08
2022-10-06T17:06:14.342Z,30.30
2022-10-06T17:08:41.517Z,33.78
2022-10-06T17:11:10.300Z,30.67
2022-10-06T17:13:38.143Z,42.45
2022-10-06T17:16:18.009Z,50.95
2022-10-06T17:18:48.537Z,35.63
2022-10-06T17:21:39.613Z,31.38
2022-10-06T17:24:03.250Z,30.10
2022-10-06T17:26:31.065Z,43.33
2022-10-06T17:28:58.943Z,40.92
2022-10-06T17:31:29.061Z,31.48
2022-10-06T17:33:56.207Z,29.30
2022-10-06T17:36:24.591Z,30.33
2022-10-06T17:38:52.518Z,35.58
2022-10-06T17:41:25.530Z,33.97
2022-10-06T17:43:52.667Z,31.05
2022-10-06T17:46:20.629Z,31.20
2022-10-06T17:48:50.957Z,29.98
2022-10-06T17:51:18.947Z,29.55
2022-10-06T17:53:47.336Z,30.17
2022-10-06T17:56:15.414Z,27.35
2022-10-06T17:58:43.214Z,26.70
2022-10-06T18:01:12.609Z,25.88
2022-10-06T18:03:41.461Z,23.80
2022-10-06T18:06:10.687Z,21.50
2022-10-06T18:08:38.466Z,22.38
2022-10-06T18:11:24.628Z,25.30
2022-10-06T18:13:54.766Z,31.90
2022-10-06T18:16:22.814Z,24.58
2022-10-06T18:18:51.898Z,27.67
2022-10-06T18:21:19.831Z,34.03
2022-10-06T18:23:47.373Z,36.08
2022-10-06T18:26:17.219Z,34.13
2022-10-06T18:28:48.052Z,38.90
2022-10-06T18:31:15.563Z,43.15
2022-10-06T18:36:30.626Z,49.28
2022-10-06T18:38:57.951Z,47.63
2022-10-06T18:41:27.258Z,44.30
2022-10-06T18:43:57.885Z,45.97
2022-10-06T18:46:43.738Z,52.53
2022-10-06T18:49:12.350Z,50.00
2022-10-06T18:51:40.491Z,50.35
2022-10-06T18:54:08.734Z,47.55
2022-10-06T18:56:36.275Z,44.90
2022-10-06T18:59:04.705Z,48.30
2022-10-06T19:01:32.198Z,48.22
2022-10-06T19:04:01.731Z,47.17
2022-10-06T19:06:29.495Z,49.47
2022-10-06T19:09:00.676Z,48.35
2022-10-06T19:11:47.304Z,49.63
2022-10-06T19:14:15.105Z,48.67
2022-10-06T19:16:42.835Z,52.00
2022-10-06T19:19:11.584Z,44.97
2022-10-06T19:21:42.714Z,45.58
2022-10-06T19:24:10.693Z,43.58
2022-10-06T19:26:41.292Z,29.95
2022-10-06T19:29:10.920Z,35.13
2022-10-06T19:31:39.959Z,34.08
2022-10-06T19:34:08.454Z,35.17
2022-10-06T19:36:35.599Z,48.28
2022-10-06T19:39:04.121Z,39.13
2022-10-06T19:41:50.278Z,32.05
2022-10-06T19:44:17.417Z,35.17
2022-10-06T19:46:44.509Z,43.63
2022-10-06T19:49:11.647Z,40.85
2022-10-06T19:51:41.203Z,52.63
2022-10-06T19:54:11.437Z,59.53
2022-10-06T19:56:41.377Z,53.47
2022-10-06T19:59:08.965Z,60.13
2022-10-06T20:01:36.108Z,54.75
2022-10-06T20:04:03.532Z,36.17
2022-10-06T20:06:30.691Z,23.38
2022-10-06T20:08:57.944Z,27.05
2022-10-06T20:11:25.067Z,37.60
2022-10-06T20:13:52.211Z,27.90
2022-10-06T20:16:19.782Z,22.85
2022-10-06T20:18:47.964Z,25.30
2022-10-06T20:21:19.369Z,29.17
2022-10-06T20:23:53.261Z,32.92
2022-10-06T20:26:21.568Z,37.72
2022-10-06T20:28:48.781Z,35.35
2022-10-06T20:31:22.889Z,34.50
2022-10-06T20:33:50.341Z,35.67
2022-10-06T20:36:18.010Z,15.70
2022-10-06T20:39:04.231Z,29.17
2022-10-06T20:41:31.650Z,29.17
2022-10-06T20:43:58.981Z,29.55
2022-10-06T20:46:27.618Z,29.27
2022-10-06T20:48:54.767Z,28.40
2022-10-06T20:51:25.536Z,28.63
2022-10-06T20:53:54.825Z,24.77
2022-10-06T20:56:21.944Z,22.02
2022-10-06T20:58:50.065Z,23.77
2022-10-06T21:01:17.432Z,16.33
2022-10-06T21:03:46.329Z,15.77
2022-10-06T21:06:16.768Z,16.55
2022-10-06T21:08:46.940Z,18.40
2022-10-06T21:11:15.026Z,19.40
2022-10-06T21:13:50.239Z,17.38
2022-10-06T21:16:17.867Z,17.92
2022-10-06T21:18:46.964Z,19.88
2022-10-06T21:21:14.228Z,19.77
2022-10-06T21:23:42.063Z,20.42
2022-10-06T21:26:10.637Z,24.20
2022-10-06T21:28:38.520Z,22.60
2022-10-06T21:31:06.526Z,23.65
2022-10-06T21:33:41.515Z,20.15
2022-10-06T21:36:10.799Z,20.23
2022-10-06T21:38:40.528Z,20.35
2022-10-06T21:41:26.520Z,19.42
2022-10-06T21:44:03.157Z,21.58
2022-10-06T21:46:31.364Z,15.68
2022-10-06T21:48:58.889Z,17.05
2022-10-06T21:51:26.375Z,16.00
2022-10-06T21:53:53.762Z,8.73
2022-10-06T21:56:22.107Z,7.05
2022-10-06T21:58:53.044Z,7.20
2022-10-06T22:01:21.383Z,7.20
2022-10-06T22:03:48.864Z,6.22
2022-10-06T22:06:19.259Z,6.72
2022-10-06T22:08:46.991Z,6.47
2022-10-06T22:11:14.166Z,6.55
2022-10-06T22:13:41.728Z,6.60
2022-10-06T22:16:09.581Z,6.03
2022-10-06T22:18:37.145Z,5.95
2022-10-06T22:21:17.212Z,5.68
2022-10-06T22:23:44.744Z,7.50
2022-10-06T22:26:12.203Z,10.07
2022-10-06T22:28:39.824Z,6.50
2022-10-06T22:31:08.112Z,5.82
2022-10-06T22:33:35.451Z,5.70
2022-10-06T22:36:02.716Z,5.10
2022-10-06T22:38:30.878Z,5.80
2022-10-06T22:41:01.318Z,6.20
2022-10-06T22:43:28.608Z,6.32
2022-10-06T22:45:55.774Z,6.60
2022-10-06T22:48:23.136Z,6.50
2022-10-06T22:50:50.327Z,6.05
2022-10-06T22:53:17.908Z,5.30
2022-10-06T22:55:45.104Z,5.28
2022-10-06T22:58:12.380Z,6.28
2022-10-06T23:00:39.670Z,5.95
2022-10-06T23:03:06.891Z,6.90
2022-10-06T23:05:34.111Z,8.23
2022-10-06T23:08:01.234Z,7.85
2022-10-06T23:10:30.491Z,6.85
2022-10-06T23:12:58.007Z,6.97
2022-10-06T23:15:25.673Z,6.60
2022-10-06T23:17:52.940Z,7.03
2022-10-06T23:20:20.127Z,7.65
2022-10-06T23:22:47.294Z,8.60
2022-10-06T23:25:14.462Z,8.68
2022-10-06T23:27:41.931Z,9.18
2022-10-06T23:30:09.744Z,9.68
2022-10-06T23:32:37.542Z,9.75
2022-10-06T23:35:04.860Z,10.02
2022-10-06T23:37:32.294Z,10.70
2022-10-06T23:39:59.456Z,10.27
2022-10-06T23:42:26.660Z,9.68
2022-10-06T23:44:53.836Z,11.07
2022-10-06T23:47:20.954Z,10.38
2022-10-06T23:49:48.083Z,11.60
2022-10-06T23:52:15.243Z,15.15
2022-10-06T23:54:42.420Z,16.25
2022-10-06T23:57:09.588Z,14.15
2022-10-06T23:59:36.707Z,11.18
